Time;durP1;ratioP1;P1;durP2;ratioP2;P2;SDS_P1;SDS_P2;PMS_P1;PMS_P2;Temp;Humidity;BMP_temperature;BMP_pressure;BME280_temperature;BME280_humidity;BME280_pressure;Samples;Min_cycle;Max_cycle;Signal;HPM_P1;HPM_P2
2023/02/16 00:00:46;;;;;;;7.90;2.80;;;;;;;-3.37;100.00;100875.13;105707;1251;61322;-55
2023/02/16 00:03:17;;;;;;;6.80;2.80;;;;;;;-3.39;100.00;100876.91;105856;1256;61722;-55
2023/02/16 00:05:46;;;;;;;;;;;;;;;-3.42;100.00;100877.93;105913;1254;74428;-55
2023/02/16 00:08:15;;;;;;;5.20;2.50;;;;;;;-3.44;100.00;100874.30;105987;1251;67622;-57
2023/02/16 00:13:43;;;;;;;5.90;2.90;;;;;;;-3.46;100.00;100877.77;105901;1256;74716;-56
2023/02/16 00:13:51;;;;;;;11.30;4.80;;;;;;;-3.48;100.00;100876.88;105717;1256;61068;-56
2023/02/16 00:16:21;;;;;;;7.80;4.30;;;;;;;-3.49;100.00;100876.41;105936;1251;61895;-55
2023/02/16 00:18:50;;;;;;;8.20;4.30;;;;;;;-3.51;100.00;100879.20;105950;1252;74532;-59
2023/02/16 00:21:19;;;;;;;8.00;3.70;;;;;;;-3.51;100.00;100882.00;105750;1254;67600;-56
2023/02/16 00:23:47;;;;;;;6.40;3.30;;;;;;;-3.51;100.00;100889.45;105880;1256;73886;-55
2023/02/16 00:26:23;;;;;;;6.90;3.50;;;;;;;-3.51;100.00;100888.56;106016;1254;60776;-57
2023/02/16 00:28:52;;;;;;;8.50;3.60;;;;;;;-3.51;100.00;100891.96;106037;1253;60940;-56
2023/02/16 00:31:25;;;;;;;7.50;3.90;;;;;;;-3.50;100.00;100895.11;105866;1256;74422;-58
2023/02/16 00:33:55;;;;;;;7.60;3.40;;;;;;;-3.49;100.00;100897.48;105972;1256;67400;-56
2023/02/16 00:36:25;;;;;;;8.10;3.20;;;;;;;-3.48;100.00;100898.96;106131;1256;73689;-57
2023/02/16 00:38:53;;;;;;;7.50;3.50;;;;;;;-3.47;100.00;100896.88;105900;1257;59864;-55
2023/02/16 00:44:16;;;;;;;6.30;3.40;;;;;;;-3.46;100.00;100898.16;105912;1256;74447;-56
2023/02/16 00:46:45;;;;;;;7.10;3.60;;;;;;;-3.44;100.00;100898.27;105884;1264;68206;-55
2023/02/16 00:49:15;;;;;;;5.50;3.20;;;;;;;-3.44;100.00;100897.20;105944;1264;73639;-56
2023/02/16 00:51:47;;;;;;;6.00;3.10;;;;;;;-3.43;100.00;100898.02;106022;1256;60089;-58
2023/02/16 00:54:16;;;;;;;6.60;3.30;;;;;;;-3.42;100.00;100898.50;106019;1255;60872;-58
2023/02/16 00:56:45;;;;;;;8.90;3.70;;;;;;;-3.43;100.00;100900.90;106036;1251;74607;-56
2023/02/16 00:59:16;;;;;;;8.50;4.20;;;;;;;-3.43;100.00;100903.47;105994;1256;67648;-56
2023/02/16 01:01:45;;;;;;;8.30;3.80;;;;;;;-3.43;100.00;100902.73;105871;1256;74143;-56
2023/02/16 01:04:20;;;;;;;7.90;4.40;;;;;;;-3.43;100.00;100903.98;105843;1257;62335;-54
2023/02/16 01:12:24;;;;;;;8.90;4.70;;;;;;;-3.44;100.00;100899.08;105913;1256;67919;-55
2023/02/16 01:14:54;;;;;;;8.60;4.40;;;;;;;-3.44;100.00;100902.34;105901;1256;73160;-53
2023/02/16 01:17:25;;;;;;;9.40;4.60;;;;;;;-3.45;100.00;100902.19;105742;1252;60310;-55
2023/02/16 01:19:56;;;;;;;10.50;4.70;;;;;;;-3.45;100.00;100905.10;105868;1256;61845;-57
2023/02/16 01:22:25;;;;;;;10.20;5.20;;;;;;;-3.46;100.00;100905.66;105978;1256;73647;-55
2023/02/16 01:24:54;;;;;;;9.80;5.20;;;;;;;-3.46;100.00;100906.66;106039;1256;68825;-55
2023/02/16 01:27:25;;;;;;;9.60;5.50;;;;;;;-3.44;100.00;100908.95;105875;1251;74170;-55
2023/02/16 01:29:54;;;;;;;8.10;4.20;;;;;;;-3.42;100.00;100907.33;106084;1254;59918;-56
2023/02/16 01:32:22;;;;;;;6.70;4.00;;;;;;;-3.43;100.00;100909.56;105979;1255;60837;-55
2023/02/16 01:34:51;;;;;;;7.60;4.10;;;;;;;-3.44;100.00;100908.29;105873;1251;74568;-54
2023/02/16 01:37:20;;;;;;;9.00;4.10;;;;;;;-3.45;100.00;100911.89;106038;1255;67468;-57
2023/02/16 01:39:49;;;;;;;8.10;3.50;;;;;;;-3.47;100.00;100910.28;106233;1255;73258;-57
2023/02/16 01:42:24;;;;;;;9.90;4.00;;;;;;;-3.48;100.00;100913.06;105976;1256;59670;-58
2023/02/16 01:44:57;;;;;;;8.30;4.10;;;;;;;-3.49;100.00;100914.29;105902;1253;62097;-57
2023/02/16 01:47:32;;;;;;;9.70;5.10;;;;;;;-3.51;100.00;100912.00;106214;1252;74876;-57
2023/02/16 01:50:22;;;;;;;8.20;4.10;;;;;;;-3.51;100.00;100921.89;105778;1251;68644;-55
2023/02/16 01:53:02;;;;;;;8.70;3.70;;;;;;;-3.51;100.00;100923.21;106004;1255;72231;-57
2023/02/16 01:55:33;;;;;;;6.50;3.50;;;;;;;-3.49;100.00;100924.67;105669;1256;59955;-57
2023/02/16 01:58:04;;;;;;;10.60;4.30;;;;;;;-3.50;100.00;100927.24;105908;1251;61937;-55
2023/02/16 02:00:48;;;;;;;;;;;;;;;-3.50;100.00;100929.81;106080;1255;74617;-55
2023/02/16 02:06:31;;;;;;;8.20;4.30;;;;;;;-3.53;100.00;100933.18;105953;1251;73493;-55
2023/02/16 02:09:23;;;;;;;9.00;4.80;;;;;;;-3.55;100.00;100934.66;105865;1256;59786;-56
2023/02/16 02:11:53;;;;;;;9.10;4.80;;;;;;;-3.58;100.00;100938.71;105631;1256;62077;-57
2023/02/16 02:14:27;;;;;;;10.50;5.10;;;;;;;-3.60;100.00;100942.90;105794;1256;73735;-55
2023/02/16 02:17:16;;;;;;;12.50;5.60;;;;;;;-3.62;100.00;100946.05;105861;1255;67601;-54
2023/02/16 02:20:03;;;;;;;10.90;5.10;;;;;;;-3.65;100.00;100941.79;105866;1251;73184;-54
2023/02/16 02:25:23;;;;;;;11.50;5.30;;;;;;;-3.68;100.00;100948.17;105986;1257;60664;-54
2023/02/16 02:28:04;;;;;;;10.90;5.10;;;;;;;-3.68;100.00;100950.90;105985;1256;74238;-55
2023/02/16 02:30:36;;;;;;;;;;;;;;;-3.68;100.00;100952.42;105994;1256;67015;-55
2023/02/16 02:33:13;;;;;;;8.10;4.10;;;;;;;-3.68;100.00;100954.30;105928;1251;74276;-54
2023/02/16 02:36:24;;;;;;;9.80;4.20;;;;;;;-3.69;100.00;100952.63;105922;1252;62271;-54
2023/02/16 02:39:03;;;;;;;10.70;4.60;;;;;;;-3.70;100.00;100952.35;105466;1260;61932;-55
2023/02/16 02:42:03;;;;;;;12.00;4.80;;;;;;;-3.69;100.00;100950.61;106173;1252;75491;-58
2023/02/16 02:44:48;;;;;;;7.90;4.60;;;;;;;-3.67;100.00;100951.02;105784;1255;68593;-55
2023/02/16 02:47:16;;;;;;;8.20;5.10;;;;;;;-3.65;100.00;100954.51;105979;1255;73137;-56
2023/02/16 02:49:51;;;;;;;17.60;6.30;;;;;;;-3.63;100.00;100957.82;105681;1255;62373;-56
2023/02/16 02:52:20;;;;;;;11.50;5.90;;;;;;;-3.62;100.00;100960.80;106034;1256;60787;-55
2023/02/16 03:00:40;;;;;;;14.00;7.10;;;;;;;-3.59;100.00;100962.38;105994;1258;73338;-55
2023/02/16 03:03:17;;;;;;;11.30;6.30;;;;;;;-3.58;100.00;100966.58;105745;1251;61142;-55
2023/02/16 03:05:50;;;;;;;14.00;6.70;;;;;;;-3.59;100.00;100966.77;105737;1257;60530;-55
2023/02/16 03:08:21;;;;;;;11.90;6.30;;;;;;;-3.58;100.00;100970.85;105736;1256;73125;-55
2023/02/16 03:14:17;;;;;;;13.10;8.10;;;;;;;-3.56;100.00;100979.89;105912;1256;73997;-55
2023/02/16 03:16:50;;;;;;;14.80;8.60;;;;;;;-3.56;100.00;100983.48;105919;1258;60431;-55
2023/02/16 03:30:29;;;;;;;13.80;7.70;;;;;;;-3.58;100.00;100993.25;105872;1251;60885;-55
2023/02/16 03:32:58;;;;;;;13.60;7.90;;;;;;;-3.61;100.00;100990.67;105886;1255;60909;-56
2023/02/16 03:35:28;;;;;;;12.20;6.20;;;;;;;-3.65;100.00;100992.91;105863;1251;74351;-56
2023/02/16 03:37:57;;;;;;;11.40;6.60;;;;;;;-3.71;100.00;100991.97;105778;1260;69432;-55
2023/02/16 03:40:28;;;;;;;11.40;6.90;;;;;;;-3.76;100.00;100996.30;105941;1251;74768;-56
2023/02/16 03:43:05;;;;;;;10.80;6.70;;;;;;;-3.81;100.00;100995.84;105873;1250;61171;-57
2023/02/16 03:45:36;;;;;;;9.40;5.90;;;;;;;-3.83;100.00;100997.67;105774;1254;62670;-56
2023/02/16 03:48:05;;;;;;;9.70;6.00;;;;;;;-3.86;100.00;100999.48;105888;1251;75511;-59
2023/02/16 03:50:36;;;;;;;9.00;5.90;;;;;;;-3.88;100.00;101004.88;105855;1251;68446;-56
2023/02/16 03:53:05;;;;;;;12.70;7.10;;;;;;;-3.91;100.00;101003.80;106032;1255;73166;-57
2023/02/16 03:55:45;;;;;;;12.80;6.60;;;;;;;-3.93;100.00;101006.80;105927;1256;63635;-57
2023/02/16 03:58:16;;;;;;;11.30;5.80;;;;;;;-3.96;100.00;101002.35;105805;1255;60570;-57
2023/02/16 04:00:44;;;;;;;10.20;6.00;;;;;;;-3.97;100.00;101004.92;106126;1251;74834;-57
2023/02/16 04:03:13;;;;;;;10.60;5.20;;;;;;;-3.96;100.00;101007.80;106298;1253;66635;-55
2023/02/16 04:05:43;;;;;;;8.70;4.70;;;;;;;-3.97;100.00;101006.96;105954;1251;74165;-56
2023/02/16 04:08:12;;;;;;;9.30;5.50;;;;;;;-3.95;100.00;101005.70;105947;1256;61747;-57
2023/02/16 04:10:44;;;;;;;8.80;4.00;;;;;;;-3.97;100.00;101007.16;105972;1257;62123;-55
2023/02/16 04:13:13;;;;;;;8.90;4.80;;;;;;;-4.00;100.00;101008.81;105931;1251;74362;-55
2023/02/16 04:15:42;;;;;;;9.50;5.30;;;;;;;-4.02;100.00;101005.70;106232;1251;67737;-60
2023/02/16 04:18:10;;;;;;;8.20;4.90;;;;;;;-4.05;100.00;101004.98;105635;1251;72533;-55
2023/02/16 04:20:39;;;;;;;7.10;4.50;;;;;;;-4.09;100.00;101010.23;105902;1251;61102;-55
2023/02/16 04:23:08;;;;;;;8.40;4.30;;;;;;;-4.11;100.00;101009.15;105956;1254;61906;-55
2023/02/16 04:25:36;;;;;;;8.90;4.60;;;;;;;-4.12;100.00;101012.09;106223;1251;75151;-54
2023/02/16 04:28:07;;;;;;;9.50;4.30;;;;;;;-4.15;100.00;101015.60;105934;1251;68261;-55
2023/02/16 04:30:35;;;;;;;9.70;5.10;;;;;;;-4.17;100.00;101017.23;105944;1251;74173;-54
2023/02/16 04:33:05;;;;;;;10.20;5.30;;;;;;;-4.21;100.00;101016.23;105976;1256;61802;-57
2023/02/16 04:35:34;;;;;;;8.30;4.70;;;;;;;-4.23;100.00;101021.41;106145;1251;63080;-57
2023/02/16 04:38:04;;;;;;;9.10;4.40;;;;;;;-4.26;100.00;101023.73;106020;1251;75608;-56
2023/02/16 04:40:34;;;;;;;9.70;4.60;;;;;;;-4.27;100.00;101022.45;106095;1256;68462;-57
2023/02/16 04:43:03;;;;;;;7.90;4.00;;;;;;;-4.29;100.00;101028.30;106120;1255;74286;-57
2023/02/16 04:45:31;;;;;;;11.00;5.20;;;;;;;-4.31;100.00;101030.44;106107;1256;62521;-57
2023/02/16 04:48:00;;;;;;;11.70;5.80;;;;;;;-4.34;100.00;101031.58;105989;1255;61094;-57
2023/02/16 04:50:30;;;;;;;10.60;5.00;;;;;;;-4.36;100.00;101037.98;106025;1251;75190;-56
2023/02/16 04:52:59;;;;;;;13.10;5.20;;;;;;;-4.39;100.00;101039.95;105828;1257;68133;-57
2023/02/16 04:55:28;;;;;;;9.40;4.80;;;;;;;-4.42;100.00;101043.98;106086;1254;74354;-56
2023/02/16 04:57:57;;;;;;;8.30;4.30;;;;;;;-4.43;100.00;101046.06;105873;1256;60891;-55
2023/02/16 05:00:26;;;;;;;9.10;4.50;;;;;;;-4.43;100.00;101048.79;106014;1252;60658;-58
2023/02/16 05:02:55;;;;;;;13.00;5.60;;;;;;;-4.44;100.00;101046.43;105860;1251;74291;-56
2023/02/16 05:05:24;;;;;;;10.70;5.30;;;;;;;-4.43;100.00;101048.10;106014;1256;67620;-59
2023/02/16 05:07:53;;;;;;;10.50;5.80;;;;;;;-4.41;100.00;101049.71;105840;1251;72768;-56
2023/02/16 05:10:22;;;;;;;11.40;5.50;;;;;;;-4.36;100.00;101050.88;106191;1256;61018;-59
2023/02/16 05:15:43;;;;;;;11.50;5.00;;;;;;;-4.28;100.00;101050.33;105938;1255;74844;-55
2023/02/16 05:18:17;;;;;;;9.30;5.40;;;;;;;-4.25;100.00;101049.82;105888;1253;68661;-54
2023/02/16 05:23:41;;;;;;;9.30;5.30;;;;;;;-4.17;100.00;101052.37;105848;1251;61067;-54
2023/02/16 05:26:09;;;;;;;12.40;5.70;;;;;;;-4.12;100.00;101057.08;105880;1255;61106;-55
2023/02/16 05:28:39;;;;;;;7.40;4.30;;;;;;;-4.09;100.00;101047.95;106167;1255;75659;-55
2023/02/16 05:31:07;;;;;;;8.90;4.70;;;;;;;-4.07;100.00;101048.03;105864;1251;68536;-55
2023/02/16 05:33:37;;;;;;;9.30;4.70;;;;;;;-4.07;100.00;101048.67;105813;1251;74166;-54
2023/02/16 05:36:06;;;;;;;11.30;5.20;;;;;;;-4.04;100.00;101049.76;105786;1258;61826;-55
2023/02/16 05:38:35;;;;;;;7.60;4.30;;;;;;;-4.01;100.00;101051.63;105883;1256;60819;-56
2023/02/16 05:41:03;;;;;;;8.40;4.80;;;;;;;-3.96;100.00;101053.80;105884;1256;74864;-54
2023/02/16 05:43:33;;;;;;;10.50;5.20;;;;;;;-3.88;100.00;101053.94;105816;1251;68037;-56
2023/02/16 05:46:07;;;;;;;8.90;4.40;;;;;;;-3.82;100.00;101056.86;105777;1256;72452;-56
2023/02/16 05:48:36;;;;;;;9.40;5.20;;;;;;;-3.77;100.00;101055.10;105992;1251;63179;-58
2023/02/16 05:51:05;;;;;;;13.30;5.60;;;;;;;-3.71;100.00;101055.81;105830;1252;61893;-55
2023/02/16 05:53:34;;;;;;;8.80;5.10;;;;;;;-3.62;100.00;101055.78;106027;1251;74494;-56
2023/02/16 05:56:03;;;;;;;9.40;5.10;;;;;;;-3.55;100.00;101064.30;105714;1251;68976;-56
2023/02/16 05:58:34;;;;;;;9.70;5.10;;;;;;;-3.51;100.00;101067.29;105982;1251;74251;-58
2023/02/16 06:01:03;;;;;;;16.10;7.10;;;;;;;-3.48;100.00;101066.52;105631;1253;62519;-56
2023/02/16 06:03:32;;;;;;;9.60;5.10;;;;;;;-3.45;100.00;101064.61;105917;1253;61864;-55
2023/02/16 06:06:01;;;;;;;9.30;5.20;;;;;;;-3.40;100.00;101065.93;105897;1251;74506;-54
2023/02/16 06:08:34;;;;;;;10.20;5.30;;;;;;;-3.35;100.00;101066.02;106121;1251;68543;-57
2023/02/16 06:11:05;;;;;;;11.60;6.10;;;;;;;-3.30;100.00;101068.14;106095;1251;74149;-59
2023/02/16 06:13:39;;;;;;;10.80;5.20;;;;;;;-3.22;100.00;101070.14;105744;1256;61300;-54
2023/02/16 06:16:09;;;;;;;12.00;5.90;;;;;;;-3.15;100.00;101072.21;105988;1251;62081;-54
2023/02/16 06:18:37;;;;;;;12.20;6.80;;;;;;;-3.13;100.00;101071.43;106112;1251;75347;-56
2023/02/16 06:21:06;;;;;;;10.20;6.00;;;;;;;-3.11;100.00;101075.79;105576;1253;67823;-57
2023/02/16 06:23:34;;;;;;;9.70;5.40;;;;;;;-3.13;100.00;101073.11;105804;1256;72130;-55
2023/02/16 06:26:03;;;;;;;11.20;5.90;;;;;;;-3.14;100.00;101071.65;105735;1251;61258;-55
2023/02/16 06:28:32;;;;;;;11.60;6.50;;;;;;;-3.12;100.00;101071.21;106076;1255;61680;-59
2023/02/16 06:31:01;;;;;;;13.10;6.90;;;;;;;-3.10;100.00;101072.81;106004;1251;75449;-58
2023/02/16 06:33:31;;;;;;;12.20;6.30;;;;;;;-3.08;100.00;101072.52;106058;1256;67398;-56
2023/02/16 06:36:04;;;;;;;9.80;5.80;;;;;;;-3.02;100.00;101073.42;105977;1251;73898;-56
2023/02/16 06:38:33;;;;;;;11.70;6.20;;;;;;;-2.99;100.00;101070.39;106011;1251;61102;-58
2023/02/16 06:41:03;;;;;;;14.20;7.00;;;;;;;-2.94;100.00;101069.80;105936;1251;61769;-57
2023/02/16 06:43:32;;;;;;;15.30;6.90;;;;;;;-2.88;100.00;101068.63;105838;1254;74689;-55
2023/02/16 06:46:00;;;;;;;13.00;7.10;;;;;;;-2.76;100.00;101065.16;105890;1256;68385;-57
2023/02/16 06:48:29;;;;;;;12.70;6.90;;;;;;;-2.63;100.00;101067.39;106062;1251;72673;-56
2023/02/16 06:50:58;;;;;;;13.80;7.20;;;;;;;-2.48;100.00;101065.92;106061;1251;60537;-57
2023/02/16 06:53:27;;;;;;;11.80;6.90;;;;;;;-2.36;100.00;101068.37;105975;1251;60354;-55
2023/02/16 06:55:56;;;;;;;15.70;7.10;;;;;;;-2.25;100.00;101073.23;106009;1256;75369;-56
2023/02/16 06:58:24;;;;;;;11.90;7.20;;;;;;;-2.14;100.00;101075.74;105810;1256;69057;-55
2023/02/16 07:00:54;;;;;;;11.80;7.00;;;;;;;-2.05;100.00;101073.85;106112;1251;73846;-58
2023/02/16 07:03:23;;;;;;;13.40;6.40;;;;;;;-1.92;100.00;101074.89;105712;1256;61280;-55
2023/02/16 07:05:52;;;;;;;12.70;7.40;;;;;;;-1.85;100.00;101074.02;106053;1251;60362;-55
2023/02/16 07:08:24;;;;;;;14.40;7.70;;;;;;;-1.77;100.00;101070.52;105927;1251;75351;-55
2023/02/16 07:10:53;;;;;;;20.50;9.80;;;;;;;-1.69;100.00;101076.20;106183;1255;67822;-55
2023/02/16 07:13:22;;;;;;;17.50;9.60;;;;;;;-1.57;100.00;101077.05;105789;1251;73129;-55
2023/02/16 07:15:51;;;;;;;12.50;7.70;;;;;;;-1.36;100.00;101078.63;105931;1251;60980;-55
2023/02/16 07:18:20;;;;;;;13.90;8.30;;;;;;;-1.14;100.00;101067.30;105750;1251;61698;-59
2023/02/16 07:20:50;;;;;;;11.50;6.80;;;;;;;-0.92;100.00;101066.05;106006;1255;74783;-56
2023/02/16 07:23:20;;;;;;;10.50;6.50;;;;;;;-0.75;100.00;101059.04;106218;1252;67612;-56
2023/02/16 07:25:48;;;;;;;12.10;7.30;;;;;;;-0.63;100.00;101057.84;105938;1255;73213;-54
2023/02/16 07:28:18;;;;;;;9.40;6.30;;;;;;;-0.53;100.00;101056.22;106304;1256;62923;-58
2023/02/16 07:30:46;;;;;;;10.70;5.50;;;;;;;-0.37;100.00;101056.13;106027;1253;60341;-55
2023/02/16 07:33:17;;;;;;;8.50;5.60;;;;;;;-0.24;100.00;101052.77;105866;1254;75142;-55
2023/02/16 07:35:45;;;;;;;11.00;5.80;;;;;;;-0.13;100.00;101051.43;105875;1255;68605;-56
2023/02/16 07:38:15;;;;;;;14.20;8.00;;;;;;;-0.01;100.00;101051.70;105976;1251;73881;-61
2023/02/16 07:40:43;;;;;;;16.60;9.60;;;;;;;0.11;100.00;101054.55;105934;1256;59295;-56
2023/02/16 07:43:14;;;;;;;11.90;6.60;;;;;;;0.23;100.00;101053.28;105919;1252;60685;-55
2023/02/16 07:45:43;;;;;;;12.90;7.20;;;;;;;0.33;100.00;101051.98;105852;1251;74306;-55
2023/02/16 07:48:12;;;;;;;10.70;5.90;;;;;;;0.36;100.00;101053.68;106163;1251;69249;-63
2023/02/16 07:50:42;;;;;;;8.80;5.60;;;;;;;0.38;100.00;101057.27;106025;1254;72350;-61
2023/02/16 07:53:10;;;;;;;9.50;5.50;;;;;;;0.41;100.00;101053.47;105818;1256;60507;-57
2023/02/16 07:55:41;;;;;;;10.50;6.80;;;;;;;0.41;100.00;101050.05;105737;1251;61993;-57
2023/02/16 07:58:11;;;;;;;8.50;6.00;;;;;;;0.41;100.00;101051.48;105957;1251;75465;-58
2023/02/16 08:00:40;;;;;;;8.30;5.60;;;;;;;0.48;100.00;101051.17;105771;1253;67384;-56
2023/02/16 08:03:08;;;;;;;9.70;5.70;;;;;;;0.57;100.00;101052.65;105958;1251;74102;-55
2023/02/16 08:05:37;;;;;;;8.70;5.10;;;;;;;0.65;100.00;101055.56;106038;1256;61005;-58
2023/02/16 08:08:05;;;;;;;9.80;6.00;;;;;;;0.77;100.00;101054.09;105831;1252;61411;-58
2023/02/16 08:10:35;;;;;;;11.50;6.10;;;;;;;0.86;100.00;101051.60;105970;1251;75454;-57
2023/02/16 08:13:03;;;;;;;8.20;5.60;;;;;;;0.92;100.00;101056.69;105944;1251;68660;-56
2023/02/16 08:15:32;;;;;;;8.40;4.90;;;;;;;0.99;100.00;101053.48;105807;1251;74213;-57
2023/02/16 08:18:00;;;;;;;10.50;5.30;;;;;;;1.10;100.00;101054.13;105920;1251;62765;-57
2023/02/16 08:20:30;;;;;;;9.00;5.60;;;;;;;1.20;100.00;101048.29;105961;1252;60588;-56
2023/02/16 08:23:19;;;;;;;9.80;6.70;;;;;;;1.35;100.00;101047.85;105751;1253;74933;-62
2023/02/16 08:25:48;;;;;;;10.20;6.20;;;;;;;1.50;100.00;101051.11;105727;1251;68918;-59
2023/02/16 08:28:18;;;;;;;9.50;5.20;;;;;;;1.75;100.00;101050.08;105742;1251;72617;-57
2023/02/16 08:30:46;;;;;;;11.20;5.90;;;;;;;2.04;100.00;101049.02;106008;1255;60499;-55
2023/02/16 08:33:15;;;;;;;8.40;5.70;;;;;;;2.29;100.00;101048.17;106279;1251;61791;-54
2023/02/16 08:35:44;;;;;;;8.50;5.10;;;;;;;2.48;100.00;101050.67;105869;1254;75584;-55
2023/02/16 08:38:15;;;;;;;8.70;5.00;;;;;;;2.61;100.00;101045.07;106012;1254;67572;-57
2023/02/16 08:40:48;;;;;;;9.70;5.50;;;;;;;2.74;100.00;101041.26;105854;1251;74187;-57
2023/02/16 08:43:18;;;;;;;8.20;5.00;;;;;;;2.88;100.00;101040.02;105949;1256;61938;-60
2023/02/16 08:45:47;;;;;;;8.50;5.00;;;;;;;2.96;100.00;101040.00;105820;1252;60585;-56
2023/02/16 08:48:16;;;;;;;7.00;4.70;;;;;;;2.94;100.00;101036.48;105780;1251;74183;-56
2023/02/16 08:50:45;;;;;;;7.90;4.40;;;;;;;2.90;100.00;101040.02;105944;1252;69300;-55
2023/02/16 08:53:15;;;;;;;8.20;5.00;;;;;;;2.88;100.00;101036.89;106000;1255;73959;-59
2023/02/16 08:55:56;;;;;;;8.20;5.50;;;;;;;2.81;100.00;101036.80;106113;1251;60910;-56
2023/02/16 08:58:26;;;;;;;12.00;7.40;;;;;;;2.72;100.00;101042.27;105753;1251;61971;-55
2023/02/16 09:00:55;;;;;;;13.60;7.20;;;;;;;2.65;100.00;101038.63;105811;1256;75339;-56
2023/02/16 09:03:25;;;;;;;8.70;5.70;;;;;;;2.55;100.00;101043.11;106250;1255;67564;-56
2023/02/16 09:05:54;;;;;;;10.70;4.90;;;;;;;2.45;100.00;101046.46;106055;1256;74286;-56
2023/02/16 09:08:22;;;;;;;7.00;3.90;;;;;;;2.29;100.00;101046.78;105893;1256;60329;-56
2023/02/16 09:10:51;;;;;;;8.60;4.30;;;;;;;2.13;100.00;101041.89;105922;1251;61823;-55
2023/02/16 09:13:20;;;;;;;7.10;4.50;;;;;;;1.98;100.00;101040.88;105955;1251;75968;-55
2023/02/16 09:15:49;;;;;;;7.80;4.30;;;;;;;1.83;100.00;101047.79;106028;1255;67641;-57
2023/02/16 09:18:21;;;;;;;7.40;4.80;;;;;;;1.64;100.00;101049.27;105856;1251;74081;-55
2023/02/16 09:20:50;;;;;;;6.80;4.00;;;;;;;1.49;100.00;101048.92;106029;1251;60922;-57
2023/02/16 09:23:20;;;;;;;9.20;5.00;;;;;;;1.44;100.00;101046.68;105899;1251;60329;-56
2023/02/16 09:25:49;;;;;;;7.20;4.40;;;;;;;1.44;100.00;101049.29;105929;1251;74003;-54
2023/02/16 09:28:19;;;;;;;11.30;5.00;;;;;;;1.48;100.00;101046.96;105688;1252;68484;-56
2023/02/16 09:30:48;;;;;;;9.70;5.80;;;;;;;1.54;100.00;101046.48;105906;1256;73204;-58
2023/02/16 09:33:17;;;;;;;7.40;4.60;;;;;;;1.51;100.00;101043.13;106206;1251;60525;-58
2023/02/16 09:35:47;;;;;;;7.20;4.80;;;;;;;1.46;100.00;101042.30;105954;1255;60857;-55
2023/02/16 09:38:16;;;;;;;7.80;5.10;;;;;;;1.41;100.00;101041.04;105993;1251;75279;-56
2023/02/16 09:40:45;;;;;;;8.80;5.60;;;;;;;1.34;100.00;101043.77;106102;1253;67360;-59
2023/02/16 09:43:29;;;;;;;8.20;5.10;;;;;;;1.26;100.00;101044.54;106024;1251;72877;-57
2023/02/16 09:46:01;;;;;;;8.40;5.30;;;;;;;1.09;100.00;101044.95;105885;1251;60449;-55
2023/02/16 09:48:41;;;;;;;6.80;4.20;;;;;;;0.88;100.00;101041.52;105887;1251;62007;-59
2023/02/16 09:51:37;;;;;;;7.40;4.80;;;;;;;0.77;100.00;101042.45;105687;1253;74258;-56
2023/02/16 09:54:33;;;;;;;7.20;4.70;;;;;;;0.76;100.00;101044.77;106063;1255;68632;-58
2023/02/16 09:57:19;;;;;;;7.20;4.30;;;;;;;0.80;100.00;101046.73;105746;1251;74484;-55
2023/02/16 09:59:51;;;;;;;7.10;4.30;;;;;;;0.87;100.00;101047.25;106033;1251;60338;-58
2023/02/16 10:02:28;;;;;;;6.50;4.50;;;;;;;0.89;100.00;101045.58;105790;1256;60861;-55
2023/02/16 10:05:16;;;;;;;7.60;4.80;;;;;;;0.85;100.00;101046.70;106111;1254;75386;-54
2023/02/16 10:08:06;;;;;;;7.70;5.10;;;;;;;0.76;100.00;101044.73;105862;1254;67719;-55
2023/02/16 10:10:38;;;;;;;7.20;4.40;;;;;;;0.68;100.00;101043.17;106099;1251;74182;-55
2023/02/16 10:13:22;;;;;;;9.00;4.80;;;;;;;0.57;100.00;101038.60;105975;1256;61153;-57
2023/02/16 10:15:51;;;;;;;;;;;;;;;0.45;100.00;101037.69;105886;1255;60741;-53
2023/02/16 10:18:28;;;;;;;8.10;4.80;;;;;;;0.41;100.00;101033.36;106351;1253;339764;-54
2023/02/16 10:20:58;;;;;;;9.20;4.90;;;;;;;0.50;100.00;101037.54;105923;1251;69315;-56
2023/02/16 10:23:50;;;;;;;8.40;4.80;;;;;;;0.83;100.00;101035.35;105932;1253;73226;-54
2023/02/16 10:26:21;;;;;;;;;;;;;;;1.46;100.00;101030.46;106261;1251;61120;-57
2023/02/16 10:28:51;;;;;;;7.20;4.70;;;;;;;2.18;100.00;101030.58;105826;1253;61802;-54
2023/02/16 10:31:42;;;;;;;7.20;4.30;;;;;;;2.85;100.00;101022.08;106007;1251;74055;-57
2023/02/16 10:34:35;;;;;;;6.60;4.30;;;;;;;3.53;100.00;101019.27;106132;1251;67315;-58
2023/02/16 10:37:23;;;;;;;7.20;4.20;;;;;;;4.15;100.00;101014.29;105942;1251;74196;-57
2023/02/16 10:40:00;;;;;;;7.10;3.90;;;;;;;4.64;100.00;101013.02;105888;1253;60872;-56
2023/02/16 10:42:35;;;;;;;5.10;3.60;;;;;;;5.02;100.00;101013.35;105910;1254;60374;-57
2023/02/16 10:45:14;;;;;;;6.00;3.90;;;;;;;5.26;100.00;101019.03;106068;1251;74271;-57
2023/02/16 10:47:44;;;;;;;6.00;3.70;;;;;;;5.34;100.00;101017.88;105792;1255;68409;-58
2023/02/16 10:50:22;;;;;;;6.50;4.00;;;;;;;5.20;100.00;101014.40;105908;1251;74145;-58
2023/02/16 10:52:51;;;;;;;7.30;4.00;;;;;;;4.97;100.00;101012.89;106030;1251;60524;-59
2023/02/16 10:55:20;;;;;;;6.80;3.60;;;;;;;4.71;100.00;101011.23;106043;1256;60688;-57
2023/02/16 10:57:57;;;;;;;7.20;4.30;;;;;;;4.46;100.00;101005.73;106162;1251;74450;-58
2023/02/16 11:00:39;;;;;;;7.20;4.20;;;;;;;4.21;100.00;101011.66;105970;1256;68680;-56
2023/02/16 11:03:09;;;;;;;7.10;4.80;;;;;;;3.98;100.00;101005.08;105876;1256;72556;-55
2023/02/16 11:05:39;;;;;;;6.60;4.50;;;;;;;3.84;100.00;101000.00;105922;1251;61203;-57
2023/02/16 11:08:10;;;;;;;6.70;4.00;;;;;;;3.69;100.00;101004.47;105866;1252;60670;-56
2023/02/16 11:10:50;;;;;;;5.70;3.20;;;;;;;3.48;100.00;101001.95;105924;1256;75268;-56
2023/02/16 11:13:46;;;;;;;6.60;3.80;;;;;;;3.24;100.00;101003.52;105968;1252;67638;-56
2023/02/16 11:16:21;;;;;;;5.60;3.60;;;;;;;3.02;100.00;101003.63;105787;1252;73750;-57
2023/02/16 11:18:56;;;;;;;7.00;4.80;;;;;;;2.84;100.00;101003.41;105750;1256;60993;-57
2023/02/16 11:21:46;;;;;;;7.30;4.00;;;;;;;2.66;100.00;101004.27;106185;1254;60872;-59
2023/02/16 11:24:28;;;;;;;8.80;5.00;;;;;;;2.49;100.00;101003.94;105925;1251;75472;-57
2023/02/16 11:27:04;;;;;;;7.80;4.60;;;;;;;2.36;100.00;101010.94;106385;1253;67720;-58
2023/02/16 11:29:33;;;;;;;8.60;5.20;;;;;;;2.23;100.00;101012.73;105779;1253;73630;-57
2023/02/16 11:32:12;;;;;;;9.20;5.50;;;;;;;2.15;100.00;101011.88;105929;1256;60920;-56
2023/02/16 11:34:44;;;;;;;7.40;5.10;;;;;;;1.99;100.00;101012.69;105915;1251;61232;-56
2023/02/16 11:37:30;;;;;;;6.90;4.40;;;;;;;1.79;100.00;101015.84;106011;1251;73752;-56
2023/02/16 11:40:01;;;;;;;6.30;4.00;;;;;;;1.65;100.00;101017.80;105799;1256;67034;-56
2023/02/16 11:42:39;;;;;;;7.60;3.90;;;;;;;1.51;100.00;101015.92;106089;1255;73989;-58
2023/02/16 11:45:08;;;;;;;6.30;3.80;;;;;;;1.36;100.00;101016.73;105973;1256;60817;-56
2023/02/16 11:47:39;;;;;;;7.20;4.40;;;;;;;1.27;100.00;101021.52;105773;1251;60890;-58
2023/02/16 11:50:18;;;;;;;7.20;4.00;;;;;;;1.14;100.00;101021.65;105960;1255;74322;-57
2023/02/16 11:52:48;;;;;;;8.30;4.00;;;;;;;1.01;100.00;101019.80;105770;1255;66846;-56
2023/02/16 11:55:34;;;;;;;6.30;3.80;;;;;;;0.89;100.00;101019.39;105873;1255;72151;-56
2023/02/16 11:58:32;;;;;;;7.10;4.10;;;;;;;0.76;100.00;101020.64;105598;1255;60843;-59
2023/02/16 12:01:20;;;;;;;6.30;3.70;;;;;;;0.60;100.00;101019.29;106053;1253;60319;-56
2023/02/16 12:04:11;;;;;;;6.80;3.90;;;;;;;0.43;100.00;101018.86;105885;1251;75472;-55
2023/02/16 12:07:02;;;;;;;6.60;3.80;;;;;;;0.21;100.00;101019.91;105949;1251;68554;-56
2023/02/16 12:09:33;;;;;;;5.50;3.50;;;;;;;0.06;100.00;101018.66;105764;1255;73164;-55
2023/02/16 12:12:09;;;;;;;7.10;4.20;;;;;;;-0.04;100.00;101020.25;106014;1251;60600;-55
2023/02/16 12:14:50;;;;;;;6.70;4.20;;;;;;;-0.05;100.00;101019.52;105958;1251;61256;-56
2023/02/16 12:17:26;;;;;;;6.00;3.40;;;;;;;0.00;100.00;101019.66;105972;1251;74348;-56